Time;durP1;ratioP1;P1;durP2;ratioP2;P2;SDS_P1;SDS_P2;PMS_P1;PMS_P2;Temp;Humidity;BMP_temperature;BMP_pressure;BME280_temperature;BME280_humidity;BME280_pressure;Samples;Min_cycle;Max_cycle;Signal;HPM_P1;HPM_P2
2022/09/25 00:01:50;;;;;;;29.00;20.72;;;;;;;5.73;72.57;100491.29;3602622;76;20975;-84
2022/09/25 00:06:41;;;;;;;26.27;20.43;;;;;;;5.71;72.72;100491.66;3558090;78;20974;-84
2022/09/25 00:11:32;;;;;;;26.12;20.75;;;;;;;5.68;72.83;100478.65;3518495;79;21964;-84
2022/09/25 00:16:28;;;;;;;26.77;20.20;;;;;;;5.63;72.63;100484.06;3506564;79;21449;-84
2022/09/25 00:21:19;;;;;;;30.20;23.70;;;;;;;5.54;72.60;100488.92;3476717;80;21553;-84
2022/09/25 00:26:13;;;;;;;33.50;22.67;;;;;;;5.47;72.70;100492.12;3607741;77;21034;-84
2022/09/25 00:31:07;;;;;;;28.65;20.27;;;;;;;5.40;72.61;100492.73;3564842;78;20981;-84
2022/09/25 00:36:07;;;;;;;27.70;20.15;;;;;;;5.33;72.70;100484.80;3534424;79;20964;-84
2022/09/25 00:40:59;;;;;;;27.50;19.70;;;;;;;5.27;72.63;100482.00;3547816;79;21285;-84
2022/09/25 00:45:50;;;;;;;29.40;21.87;;;;;;;5.25;72.76;100486.22;3516029;77;20963;-84
2022/09/25 00:50:50;;;;;;;27.30;21.10;;;;;;;5.20;72.83;100481.31;3613829;78;20955;-84
2022/09/25 00:55:43;;;;;;;35.10;22.77;;;;;;;5.14;72.83;100472.09;3627859;78;20981;-84
2022/09/25 01:00:34;;;;;;;27.15;22.17;;;;;;;5.08;73.03;100471.86;3551741;78;21450;-84
2022/09/25 01:05:31;;;;;;;25.50;20.95;;;;;;;5.02;73.10;100463.52;3565034;79;21031;-84
2022/09/25 01:10:22;;;;;;;29.83;24.10;;;;;;;4.97;73.27;100472.77;3537977;79;20939;-84
2022/09/25 01:15:17;;;;;;;35.00;23.38;;;;;;;4.95;73.32;100458.58;3451741;79;20958;-84
2022/09/25 01:20:41;;;;;;;30.55;21.97;;;;;;;4.92;73.29;100464.90;3521166;79;20928;-84
2022/09/25 01:26:00;;;;;;;32.60;23.42;;;;;;;4.93;73.31;100463.19;3529720;79;20872;-84
2022/09/25 01:30:57;;;;;;;34.03;23.07;;;;;;;4.90;73.35;100459.20;3562684;79;20959;-84
2022/09/25 01:36:10;;;;;;;31.13;22.97;;;;;;;4.84;73.35;100467.59;3557670;79;20998;-84
2022/09/25 01:41:13;;;;;;;32.45;22.98;;;;;;;4.81;73.61;100461.45;3539725;79;20955;-84
2022/09/25 01:46:18;;;;;;;31.37;21.87;;;;;;;4.80;73.71;100458.02;3529776;79;21002;-84
2022/09/25 01:51:20;;;;;;;28.52;20.72;;;;;;;4.78;73.47;100455.80;3498237;79;21450;-84
2022/09/25 01:56:28;;;;;;;29.40;21.02;;;;;;;4.74;73.57;100456.10;3544309;79;22127;-84
2022/09/25 02:01:24;;;;;;;30.97;21.80;;;;;;;4.73;73.58;100450.89;3576442;79;21043;-84
2022/09/25 02:06:19;;;;;;;28.38;21.97;;;;;;;4.68;73.49;100445.98;3494204;79;20951;-84
2022/09/25 02:11:11;;;;;;;25.02;18.95;;;;;;;4.63;73.48;100449.66;3500266;79;21511;-84
2022/09/25 02:16:08;;;;;;;30.27;20.82;;;;;;;4.58;73.74;100449.51;3505807;79;21545;-84
2022/09/25 02:21:24;;;;;;;29.70;20.10;;;;;;;4.56;73.76;100447.30;3539371;79;23095;-84
2022/09/25 02:26:29;;;;;;;25.77;19.17;;;;;;;4.52;73.80;100444.11;3452064;81;21431;-84
2022/09/25 02:31:27;;;;;;;24.52;19.10;;;;;;;4.51;73.92;100442.38;3445070;81;21014;-84
2022/09/25 02:36:22;;;;;;;25.25;20.35;;;;;;;4.49;74.09;100427.28;3434793;81;21356;-84
2022/09/25 02:41:42;;;;;;;27.82;19.30;;;;;;;4.47;73.94;100427.64;3403487;81;21036;-84
2022/09/25 02:46:50;;;;;;;25.72;17.42;;;;;;;4.42;74.06;100418.88;3381340;83;21914;-84
2022/09/25 02:51:55;;;;;;;25.00;17.73;;;;;;;4.37;74.17;100415.25;3343783;83;20943;-84
2022/09/25 02:56:55;;;;;;;22.65;17.35;;;;;;;4.31;73.96;100412.42;3365548;83;20979;-84
2022/09/25 03:01:46;;;;;;;22.30;16.40;;;;;;;4.27;73.92;100413.14;3334027;82;20959;-84
2022/09/25 03:06:39;;;;;;;26.55;18.92;;;;;;;4.22;74.13;100414.27;3321636;83;21403;-84
2022/09/25 03:11:30;;;;;;;19.57;15.25;;;;;;;4.23;74.28;100408.71;3303347;83;21955;-84
2022/09/25 03:16:47;;;;;;;19.40;15.98;;;;;;;4.23;74.24;100408.71;3395874;80;20954;-84
2022/09/25 03:21:37;;;;;;;22.48;16.52;;;;;;;4.18;74.28;100406.81;3458492;80;20954;-84
2022/09/25 03:26:29;;;;;;;24.18;16.80;;;;;;;4.13;74.54;100401.94;3510813;80;20946;-84
2022/09/25 03:31:20;;;;;;;21.60;18.07;;;;;;;4.13;74.54;100401.94;3438020;80;21192;-84
2022/09/25 03:36:19;;;;;;;22.22;17.23;;;;;;;4.11;74.48;100402.25;3427560;80;22012;-84
2022/09/25 03:41:14;;;;;;;18.98;15.13;;;;;;;4.10;74.52;100408.24;3479146;80;20977;-84
2022/09/25 03:46:09;;;;;;;21.48;15.83;;;;;;;4.08;74.53;100409.88;3441463;80;20998;-84
2022/09/25 03:51:00;;;;;;;19.45;14.65;;;;;;;4.06;74.60;100408.95;3442799;80;20976;-84
2022/09/25 03:55:51;;;;;;;21.12;16.00;;;;;;;4.03;74.52;100406.25;3417109;80;20887;-83
2022/09/25 04:00:44;;;;;;;20.43;15.90;;;;;;;4.03;74.60;100410.11;3451881;80;21188;-84
2022/09/25 04:05:35;;;;;;;22.70;18.48;;;;;;;4.02;74.82;100408.34;3472604;78;20923;-83
2022/09/25 04:10:27;;;;;;;21.68;15.43;;;;;;;4.02;74.74;100404.48;3495304;78;20878;-83
2022/09/25 04:15:18;;;;;;;19.98;16.35;;;;;;;3.99;74.87;100401.81;3515048;79;20959;-84
2022/09/25 04:20:09;;;;;;;19.00;15.58;;;;;;;3.96;74.63;100408.12;3458664;78;20904;-84
2022/09/25 04:25:01;;;;;;;20.40;15.83;;;;;;;3.93;74.70;100407.99;3488069;78;21729;-84
2022/09/25 04:29:53;;;;;;;23.18;16.97;;;;;;;3.95;74.93;100408.92;3466465;80;20922;-83
2022/09/25 04:34:44;;;;;;;20.32;14.35;;;;;;;3.95;75.07;100400.83;3512458;78;20923;-84
2022/09/25 04:39:35;;;;;;;19.57;14.97;;;;;;;3.96;74.95;100403.84;3486236;80;20996;-84
2022/09/25 04:44:26;;;;;;;20.80;14.60;;;;;;;3.99;75.22;100401.81;3437991;80;21207;-84
2022/09/25 04:49:17;;;;;;;20.30;15.60;;;;;;;4.03;75.12;100395.96;3473487;78;20938;-84
2022/09/25 04:54:08;;;;;;;19.42;14.83;;;;;;;4.07;75.09;100395.25;3473340;80;21073;-84
2022/09/25 04:58:59;;;;;;;16.37;14.38;;;;;;;4.10;75.12;100395.38;3471854;78;20989;-84
2022/09/25 05:03:52;;;;;;;20.02;15.55;;;;;;;4.13;75.14;100395.50;3530697;78;21058;-83
2022/09/25 05:08:43;;;;;;;21.25;15.95;;;;;;;4.18;75.39;100391.38;3545851;78;20923;-84
2022/09/25 05:13:34;;;;;;;20.48;15.78;;;;;;;4.23;75.58;100389.41;3522700;79;20991;-83
2022/09/25 05:18:25;;;;;;;20.12;14.58;;;;;;;4.30;75.87;100388.81;3547094;78;20903;-84
2022/09/25 05:23:16;;;;;;;20.48;15.55;;;;;;;4.37;75.92;100392.08;3540417;78;20943;-84
2022/09/25 05:28:09;;;;;;;18.50;15.10;;;;;;;4.44;76.24;100392.77;3524281;78;21033;-84
2022/09/25 05:33:00;;;;;;;20.82;16.07;;;;;;;4.49;76.34;100401.55;3521156;78;20970;-84
2022/09/25 05:37:51;;;;;;;17.77;14.15;;;;;;;4.58;76.45;100402.29;3492216;79;21759;-84
2022/09/25 05:42:44;;;;;;;21.37;16.30;;;;;;;4.67;76.58;100415.88;3488731;78;21014;-84
2022/09/25 05:47:34;;;;;;;21.60;17.02;;;;;;;4.78;76.82;100415.88;3525533;78;20959;-84
2022/09/25 05:52:26;;;;;;;20.90;17.85;;;;;;;4.96;77.05;100415.64;3554407;78;21049;-84
2022/09/25 05:57:17;;;;;;;28.92;19.75;;;;;;;4.96;77.05;100415.64;3513939;78;21470;-84
2022/09/25 06:02:11;;;;;;;25.25;20.65;;;;;;;5.10;77.23;100423.86;3515436;78;20892;-84
2022/09/25 06:07:02;;;;;;;26.55;22.95;;;;;;;5.24;77.45;100421.72;3575576;77;20950;-86
2022/09/25 06:11:53;;;;;;;25.50;22.87;;;;;;;5.39;77.52;100420.09;3544036;77;21726;-86
2022/09/25 06:16:48;;;;;;;23.22;20.32;;;;;;;5.52;77.56;100423.52;3623356;77;20980;-86
2022/09/25 06:21:39;;;;;;;21.73;17.27;;;;;;;5.63;77.69;100419.58;3563975;77;20983;-86
2022/09/25 06:26:33;;;;;;;23.65;19.02;;;;;;;5.73;77.54;100413.90;3552697;76;21486;-86
2022/09/25 06:31:24;;;;;;;25.23;22.22;;;;;;;5.80;77.69;100403.78;3571383;77;20931;-86
2022/09/25 06:36:15;;;;;;;22.55;19.57;;;;;;;5.87;77.83;100410.89;3579404;77;20908;-86
2022/09/25 06:41:06;;;;;;;18.67;16.12;;;;;;;6.01;77.96;100413.52;3446938;79;20994;-86
2022/09/25 06:46:02;;;;;;;21.27;17.20;;;;;;;6.15;78.03;100407.88;3554767;77;20935;-86
2022/09/25 06:50:56;;;;;;;23.85;17.80;;;;;;;6.29;78.17;100402.28;3532637;78;21497;-86
2022/09/25 06:55:48;;;;;;;18.62;16.42;;;;;;;6.46;78.14;100400.63;3529413;78;20989;-86
2022/09/25 07:00:40;;;;;;;19.80;16.70;;;;;;;6.61;78.26;100405.34;3495159;79;21422;-85
2022/09/25 07:05:33;;;;;;;23.15;18.05;;;;;;;6.78;78.30;100401.52;3548574;78;21511;-85
2022/09/25 07:10:24;;;;;;;24.85;20.02;;;;;;;6.99;78.38;100400.33;3578111;77;21546;-85
2022/09/25 07:15:16;;;;;;;25.85;19.67;;;;;;;7.21;78.50;100398.77;3481659;78;21262;-86
2022/09/25 07:20:07;;;;;;;28.25;21.02;;;;;;;7.42;78.39;100388.09;3484246;78;20954;-86
2022/09/25 07:24:58;;;;;;;25.90;20.43;;;;;;;7.71;78.27;100385.33;3542017;77;20976;-85
2022/09/25 07:29:51;;;;;;;23.77;18.20;;;;;;;7.92;78.08;100394.41;3538859;79;21741;-85
2022/09/25 07:34:42;;;;;;;19.02;16.15;;;;;;;8.13;78.03;100384.52;3512868;78;20931;-86
2022/09/25 07:39:33;;;;;;;19.48;16.37;;;;;;;8.33;77.71;100382.34;3516676;77;21649;-86
2022/09/25 07:44:24;;;;;;;18.10;16.23;;;;;;;8.85;77.24;100388.14;3494723;78;21469;-85
2022/09/25 07:49:15;;;;;;;19.17;15.30;;;;;;;9.19;76.39;100386.16;3588875;78;20997;-86
2022/09/25 07:54:06;;;;;;;16.73;14.95;;;;;;;9.50;76.39;100379.77;3489908;77;21078;-86
2022/09/25 07:58:57;;;;;;;18.65;14.50;;;;;;;9.72;76.28;100377.08;3606486;77;21040;-86
2022/09/25 08:03:48;;;;;;;16.67;14.25;;;;;;;10.27;75.60;100377.84;3545103;77;21757;-86
2022/09/25 08:08:41;;;;;;;16.25;13.18;;;;;;;10.65;74.99;100378.75;3516707;79;20930;-86
2022/09/25 08:13:33;;;;;;;14.23;11.95;;;;;;;10.77;75.11;100373.27;3600899;77;21123;-86
2022/09/25 08:18:24;;;;;;;16.15;13.22;;;;;;;10.95;74.95;100373.88;3615416;77;20943;-85
2022/09/25 08:23:15;;;;;;;18.05;14.78;;;;;;;11.20;74.53;100380.19;3608010;76;20896;-86
2022/09/25 08:28:06;;;;;;;17.32;15.48;;;;;;;11.44;73.82;100376.47;3580589;76;21045;-86
2022/09/25 08:32:57;;;;;;;19.62;15.70;;;;;;;11.65;73.16;100378.81;3551959;77;21048;-86
2022/09/25 08:37:48;;;;;;;19.52;14.75;;;;;;;11.87;72.92;100373.73;3591737;77;20944;-86
2022/09/25 08:42:40;;;;;;;16.57;14.78;;;;;;;12.04;72.46;100374.75;3518582;79;20943;-86
2022/09/25 08:52:46;;;;;;;16.80;14.20;;;;;;;12.56;71.39;100354.11;3617267;77;20914;-86
2022/09/25 08:57:44;;;;;;;13.97;12.57;;;;;;;12.95;70.92;100349.85;3524077;78;20974;-86
2022/09/25 09:02:45;;;;;;;12.18;10.58;;;;;;;13.30;70.43;100351.59;3550686;78;21470;-85
2022/09/25 09:07:46;;;;;;;12.95;11.18;;;;;;;13.51;69.09;100336.84;3588040;77;21477;-86
2022/09/25 09:12:45;;;;;;;14.18;11.05;;;;;;;13.81;68.86;100335.06;3581104;77;21014;-86
2022/09/25 09:17:40;;;;;;;10.82;9.70;;;;;;;13.86;68.36;100325.44;3550389;78;21704;-86
2022/09/25 09:22:36;;;;;;;12.18;10.82;;;;;;;13.96;68.21;100311.47;3555602;78;21482;-86
2022/09/25 09:27:53;;;;;;;11.48;10.28;;;;;;;13.92;68.13;100307.14;3617420;78;20935;-84
2022/09/25 09:33:16;;;;;;;14.58;11.10;;;;;;;13.88;67.98;100296.28;3604529;77;20967;-86
2022/09/25 09:38:31;;;;;;;12.95;9.80;;;;;;;13.86;67.22;100294.08;3542598;78;21395;-86
2022/09/25 09:43:40;;;;;;;13.20;11.70;;;;;;;13.91;67.19;100289.70;3521014;79;20958;-86
2022/09/25 09:48:38;;;;;;;10.70;9.58;;;;;;;14.41;66.66;100288.61;3619004;77;21457;-86
2022/09/25 09:53:34;;;;;;;10.13;8.88;;;;;;;14.68;66.70;100281.08;3544641;78;21046;-86
2022/09/25 09:59:08;;;;;;;12.20;10.80;;;;;;;14.85;66.16;100282.25;3604384;78;26687;-86
2022/09/25 10:04:16;;;;;;;11.20;9.05;;;;;;;15.15;65.49;100283.31;3559473;78;20923;-86
2022/09/25 10:09:12;;;;;;;14.53;9.60;;;;;;;15.60;65.11;100270.23;3484872;81;21019;-86
2022/09/25 10:14:04;;;;;;;10.80;9.68;;;;;;;16.75;63.41;100245.55;3475151;79;21486;-87
2022/09/25 10:19:03;;;;;;;10.38;9.30;;;;;;;18.23;61.23;100244.14;3487493;79;21431;-87
2022/09/25 10:24:01;;;;;;;9.40;8.50;;;;;;;21.17;57.13;100223.17;3490473;79;20960;-86
2022/09/25 10:28:58;;;;;;;9.73;8.83;;;;;;;23.46;54.32;100227.94;3495216;79;20964;-87
2022/09/25 10:33:59;;;;;;;8.15;7.17;;;;;;;23.22;54.86;100218.81;3502570;80;21545;-85
2022/09/25 10:38:51;;;;;;;8.20;7.50;;;;;;;22.09;51.70;100217.19;3514985;79;20933;-85
2022/09/25 10:44:01;;;;;;;6.28;5.72;;;;;;;23.93;50.90;100207.72;3473082;80;21361;-85
2022/09/25 10:54:12;;;;;;;8.33;6.65;;;;;;;25.69;47.00;100198.48;3475810;80;21214;-85
2022/09/25 10:59:13;;;;;;;6.85;6.20;;;;;;;26.14;45.78;100198.72;3475068;80;21181;-87
2022/09/25 11:04:19;;;;;;;5.75;5.25;;;;;;;26.70;44.40;100193.77;3482359;80;20958;-87
2022/09/25 11:09:23;;;;;;;7.70;5.75;;;;;;;27.25;44.41;100181.61;3539317;77;20987;-87
2022/09/25 11:14:31;;;;;;;5.62;5.12;;;;;;;27.54;42.90;100176.31;3542315;79;20971;-87
2022/09/25 11:19:37;;;;;;;5.72;5.00;;;;;;;27.07;42.74;100166.73;3534432;77;20975;-87
2022/09/25 11:24:52;;;;;;;6.15;4.42;;;;;;;26.55;43.67;100174.17;3543903;77;21106;-87
2022/09/25 11:30:07;;;;;;;5.50;4.70;;;;;;;27.06;42.33;100161.00;3555818;77;21006;-88
2022/09/25 11:35:28;;;;;;;5.65;5.25;;;;;;;26.85;42.29;100163.17;3565011;78;21465;-87
2022/09/25 11:46:02;;;;;;;5.70;5.12;;;;;;;25.21;42.51;100146.06;3577102;79;21486;-87
2022/09/25 11:51:21;;;;;;;5.00;4.50;;;;;;;24.05;42.93;100149.17;3550702;77;21135;-87
2022/09/25 11:56:26;;;;;;;6.15;4.97;;;;;;;23.57;44.68;100151.84;3498744;80;20995;-87
2022/09/25 12:01:40;;;;;;;5.10;4.60;;;;;;;22.73;44.21;100148.01;3494081;80;21429;-87
2022/09/25 12:07:18;;;;;;;5.67;5.17;;;;;;;22.16;44.70;100145.45;3463876;80;20998;-86
2022/09/25 12:12:31;;;;;;;5.92;4.47;;;;;;;21.72;43.66;100141.47;3456552;80;21476;-87
2022/09/25 12:17:55;;;;;;;5.37;4.87;;;;;;;21.60;45.17;100143.64;3473952;80;21536;-86
2022/09/25 12:23:01;;;;;;;4.83;4.42;;;;;;;20.88;45.80;100139.16;3348791;83;21044;-86
2022/09/25 12:28:15;;;;;;;4.80;3.90;;;;;;;19.79;46.50;100129.02;3350854;83;21691;-86
2022/09/25 12:33:13;;;;;;;5.95;5.28;;;;;;;19.12;47.99;100137.53;3311834;83;20991;-86
2022/09/25 12:38:16;;;;;;;6.85;6.15;;;;;;;18.61;49.71;100123.91;3364756;83;21007;-86
2022/09/25 12:43:21;;;;;;;10.15;8.05;;;;;;;18.58;51.16;100126.64;3337867;83;21889;-86
2022/09/25 12:48:26;;;;;;;5.08;4.58;;;;;;;19.32;50.34;100114.60;3369699;83;20979;-87
2022/09/25 12:53:26;;;;;;;5.80;5.30;;;;;;;20.06;47.54;100100.52;3458907;79;20873;-86
2022/09/25 12:58:24;;;;;;;5.25;4.75;;;;;;;19.81;48.01;100094.23;3552732;77;20924;-87
2022/09/25 13:03:21;;;;;;;5.30;4.80;;;;;;;20.23;47.79;100094.68;3470119;80;21398;-87
2022/09/25 13:08:30;;;;;;;5.42;4.92;;;;;;;19.85;47.87;100090.19;3579621;77;21079;-87
2022/09/25 13:13:26;;;;;;;6.35;5.85;;;;;;;19.31;49.00;100092.63;3636963;77;20915;-86
2022/09/25 13:18:22;;;;;;;6.35;5.75;;;;;;;19.15;49.81;100090.03;3522915;77;20933;-87
2022/09/25 13:23:26;;;;;;;7.30;6.50;;;;;;;19.15;49.42;100082.98;3562035;77;21622;-86
2022/09/25 13:28:25;;;;;;;8.25;6.37;;;;;;;18.73;50.12;100087.66;3588392;76;20960;-86
2022/09/25 13:33:20;;;;;;;6.37;5.75;;;;;;;18.37;51.09;100086.36;3579236;77;21152;-87
2022/09/25 13:43:27;;;;;;;6.35;5.30;;;;;;;18.32;52.13;100081.69;3545776;77;20943;-86
2022/09/25 13:48:35;;;;;;;10.60;5.87;;;;;;;18.11;52.34;100077.35;3567281;76;20959;-86
2022/09/25 13:53:32;;;;;;;6.10;5.17;;;;;;;17.87;53.25;100072.25;3532360;77;21286;-87
2022/09/25 13:58:27;;;;;;;7.33;6.62;;;;;;;17.66;54.06;100077.50;3549727;77;21034;-87
2022/09/25 14:03:43;;;;;;;6.83;6.17;;;;;;;17.48;54.92;100067.80;3625753;77;20943;-87
2022/09/25 14:08:38;;;;;;;6.60;6.00;;;;;;;17.29;54.70;100069.09;3601577;77;20938;-86
2022/09/25 14:13:31;;;;;;;7.17;6.47;;;;;;;17.12;55.15;100062.43;3662439;77;20915;-86
2022/09/25 14:18:31;;;;;;;7.60;6.92;;;;;;;17.03;56.65;100063.94;3574393;77;21452;-86
2022/09/25 14:23:31;;;;;;;9.43;7.45;;;;;;;16.96;56.74;100057.93;3594397;77;20959;-87
2022/09/25 14:28:29;;;;;;;9.53;7.47;;;;;;;16.92;56.93;100053.64;3608278;76;20924;-86
2022/09/25 14:33:44;;;;;;;11.78;6.87;;;;;;;16.86;57.74;100053.75;3533854;78;20991;-86
2022/09/25 14:38:58;;;;;;;9.68;6.85;;;;;;;16.83;57.99;100046.34;3616165;76;20970;-87
2022/09/25 14:43:55;;;;;;;7.12;5.72;;;;;;;16.82;58.36;100045.95;3568898;79;21144;-86
2022/09/25 14:48:57;;;;;;;6.72;6.12;;;;;;;16.75;58.01;100041.25;3501872;78;21114;-86
2022/09/25 14:54:00;;;;;;;8.20;6.85;;;;;;;16.70;58.23;100036.08;3636933;77;21560;-86
2022/09/25 14:58:56;;;;;;;7.37;6.47;;;;;;;16.72;58.31;100031.69;3584291;77;21477;-86
2022/09/25 15:03:50;;;;;;;10.20;6.25;;;;;;;16.83;58.75;100022.72;3540154;77;21013;-86
2022/09/25 15:08:41;;;;;;;7.30;6.60;;;;;;;16.85;58.97;100018.36;3575936;77;21429;-86
2022/09/25 15:13:32;;;;;;;11.12;8.58;;;;;;;16.65;59.00;100022.20;3553570;78;21839;-86
2022/09/25 15:18:24;;;;;;;9.05;8.15;;;;;;;16.48;59.43;100020.34;3564075;78;20998;-86
2022/09/25 15:23:19;;;;;;;9.33;8.40;;;;;;;16.38;59.60;100016.58;3582120;77;21029;-86
2022/09/25 15:28:18;;;;;;;9.08;7.67;;;;;;;16.22;60.10;100006.36;3641756;78;21504;-86
2022/09/25 15:33:27;;;;;;;10.82;8.13;;;;;;;16.00;60.60;100002.34;3618397;78;21426;-86
2022/09/25 15:38:19;;;;;;;7.30;6.60;;;;;;;15.79;60.91;100002.27;3597990;78;21895;-86
2022/09/25 15:43:14;;;;;;;12.75;8.23;;;;;;;15.55;61.04;100001.30;3553612;78;21277;-86
2022/09/25 15:48:30;;;;;;;6.87;6.25;;;;;;;15.34;61.94;100009.02;3539706;77;20927;-85
2022/09/25 15:53:34;;;;;;;8.50;7.60;;;;;;;15.14;62.58;100009.29;3530047;77;20877;-85
2022/09/25 15:58:26;;;;;;;14.63;10.35;;;;;;;14.94;62.78;100016.95;3500535;77;21020;-86
2022/09/25 16:08:35;;;;;;;17.23;14.53;;;;;;;14.58;63.46;100005.16;3495645;80;20948;-86
2022/09/25 16:13:26;;;;;;;27.37;21.52;;;;;;;14.41;64.16;100006.14;3394841;80;21197;-85
2022/09/25 16:18:32;;;;;;;16.07;12.95;;;;;;;14.26;64.45;100007.17;3465931;80;20971;-85
2022/09/25 16:23:28;;;;;;;13.28;11.88;;;;;;;14.16;64.94;100000.28;3482741;80;20962;-86
2022/09/25 16:28:25;;;;;;;15.87;11.27;;;;;;;14.03;65.39;99995.61;3491774;80;21434;-87
2022/09/25 16:33:27;;;;;;;12.85;10.30;;;;;;;13.97;65.95;99991.77;3466761;80;21019;-82
2022/09/25 16:38:33;;;;;;;13.95;9.08;;;;;;;13.90;66.46;99983.55;3481289;80;20991;-84
2022/09/25 16:43:25;;;;;;;10.10;7.25;;;;;;;13.85;66.94;99982.72;3497706;80;21391;-84
2022/09/25 16:48:36;;;;;;;8.43;7.37;;;;;;;13.80;67.54;99977.96;3416787;80;38768;-85
2022/09/25 16:53:29;;;;;;;11.33;7.97;;;;;;;13.73;67.79;99984.55;3366502;82;21002;-84
2022/09/25 16:58:21;;;;;;;9.85;7.28;;;;;;;13.62;68.31;99985.05;3403713;82;20980;-84
2022/09/25 17:03:13;;;;;;;7.85;7.05;;;;;;;13.53;68.60;99980.76;3371380;82;21443;-84
2022/09/25 17:08:17;;;;;;;11.30;8.25;;;;;;;13.46;68.82;99982.12;3393376;81;21086;-84
2022/09/25 17:13:12;;;;;;;9.33;7.72;;;;;;;13.39;69.18;99987.81;3463032;79;20926;-84
2022/09/25 17:18:12;;;;;;;9.43;7.65;;;;;;;13.30;69.37;99980.87;3428786;79;21907;-85
2022/09/25 17:23:03;;;;;;;8.68;7.65;;;;;;;13.22;69.65;99978.76;3443202;81;21596;-85
2022/09/25 17:27:54;;;;;;;12.37;10.30;;;;;;;13.18;69.94;99984.88;3506510;79;21045;-85
2022/09/25 17:32:45;;;;;;;12.15;10.80;;;;;;;13.10;70.14;99987.95;3552850;78;20920;-85
2022/09/25 17:37:36;;;;;;;15.20;12.68;;;;;;;13.08;70.44;99989.71;3499169;80;21038;-84
2022/09/25 17:42:27;;;;;;;15.15;12.63;;;;;;;13.06;70.66;99987.55;3441993;79;20928;-85
2022/09/25 17:47:20;;;;;;;13.83;12.40;;;;;;;13.06;70.87;99987.55;3442990;77;20916;-85
2022/09/25 17:52:15;;;;;;;100.67;47.13;;;;;;;13.03;70.98;99987.55;3569764;78;20948;-85
2022/09/25 17:57:08;;;;;;;76.30;57.03;;;;;;;12.96;71.17;99985.41;3516291;77;20951;-85
2022/09/25 18:01:59;;;;;;;146.22;103.85;;;;;;;12.89;71.34;99971.51;3477994;79;20932;-84
2022/09/25 18:06:50;;;;;;;77.25;54.13;;;;;;;12.83;71.57;99972.86;3459628;79;21664;-85
2022/09/25 18:11:43;;;;;;;30.75;22.80;;;;;;;12.77;71.71;99961.16;3491649;79;20935;-85
2022/09/25 18:16:34;;;;;;;40.83;31.23;;;;;;;12.72;71.79;99965.52;3473149;79;22317;-86
2022/09/25 18:26:34;;;;;;;43.00;33.42;;;;;;;12.64;72.17;99959.45;3498132;79;21105;-86
2022/09/25 18:31:25;;;;;;;32.45;23.05;;;;;;;12.63;72.33;99955.13;3498083;79;22254;-86
2022/09/25 18:36:16;;;;;;;28.60;23.87;;;;;;;12.59;72.47;99956.43;3549759;78;20975;-86
2022/09/25 18:41:07;;;;;;;28.80;23.10;;;;;;;12.57;72.58;99955.98;3496910;79;21026;-86
2022/09/25 18:45:59;;;;;;;23.15;18.45;;;;;;;12.54;72.62;99955.58;3481998;79;20957;-86
2022/09/25 18:50:51;;;;;;;27.10;18.90;;;;;;;12.52;72.80;99957.33;3477824;79;20911;-86
2022/09/25 18:55:43;;;;;;;25.97;20.05;;;;;;;12.52;72.90;99953.41;3521687;79;21287;-86
2022/09/25 19:00:33;;;;;;;22.70;19.12;;;;;;;12.52;72.97;99950.80;3533602;79;20947;-86
2022/09/25 19:05:25;;;;;;;27.93;19.70;;;;;;;12.50;72.97;99955.16;3510301;79;21656;-85
2022/09/25 19:10:16;;;;;;;23.00;16.93;;;;;;;12.47;73.11;99947.78;3468276;79;20993;-85
2022/09/25 19:15:08;;;;;;;23.45;17.65;;;;;;;12.46;73.20;99940.83;3517308;79;20943;-85
2022/09/25 19:20:00;;;;;;;21.93;16.73;;;;;;;12.43;73.28;99944.32;3454479;79;22136;-86
2022/09/25 19:24:55;;;;;;;21.68;17.40;;;;;;;12.39;73.31;99943.88;3492528;79;20956;-85
2022/09/25 19:29:44;;;;;;;18.57;16.52;;;;;;;12.31;73.21;99946.52;3471272;79;20964;-85
2022/09/25 19:34:35;;;;;;;22.20;18.92;;;;;;;12.22;73.38;99940.47;3444938;79;20967;-85
2022/09/25 19:39:27;;;;;;;23.52;19.32;;;;;;;12.13;73.53;99945.26;3509693;78;20951;-85
2022/09/25 19:44:18;;;;;;;21.55;17.23;;;;;;;12.05;73.66;99946.55;3534847;78;21090;-85
2022/09/25 19:49:11;;;;;;;18.52;16.12;;;;;;;11.98;73.85;99935.30;3514435;79;21472;-85
2022/09/25 19:54:09;;;;;;;22.15;16.30;;;;;;;11.97;73.93;99932.69;3499902;79;21213;-85
2022/09/25 19:59:05;;;;;;;;;;;;;;;11.91;73.94;99931.38;3471067;79;21001;-85
2022/09/25 20:03:55;;;;;;;19.05;16.00;;;;;;;11.85;74.13;99930.05;3521951;79;20565;-85
2022/09/25 20:08:46;;;;;;;19.98;17.50;;;;;;;11.78;74.07;99934.39;3454931;79;21056;-85
2022/09/25 20:13:38;;;;;;;22.45;17.82;;;;;;;11.73;74.12;99935.72;3433797;80;21474;-85
2022/09/25 20:18:29;;;;;;;21.33;16.93;;;;;;;11.64;74.14;99934.39;3381359;80;20959;-85
2022/09/25 20:23:19;;;;;;;20.37;17.30;;;;;;;11.52;74.14;99929.17;3400786;80;21183;-85
2022/09/25 20:28:11;;;;;;;20.37;17.67;;;;;;;11.43;74.35;99932.22;3428256;80;21030;-85
2022/09/25 20:33:03;;;;;;;22.27;17.52;;;;;;;11.35;74.31;99928.73;3401164;80;21825;-86
2022/09/25 20:37:54;;;;;;;25.55;18.17;;;;;;;11.22;74.33;99926.99;3407266;80;21517;-85
2022/09/25 20:42:45;;;;;;;20.43;16.97;;;;;;;11.11;74.39;99931.31;3404362;80;21529;-85
2022/09/25 20:47:38;;;;;;;20.85;17.87;;;;;;;10.98;74.08;99931.69;3402670;79;22783;-85
2022/09/25 20:52:33;;;;;;;19.67;16.48;;;;;;;10.87;74.41;99927.76;3429063;80;20902;-85
2022/09/25 20:57:25;;;;;;;19.80;16.42;;;;;;;10.79;74.23;99929.48;3455016;80;21182;-85
2022/09/25 21:02:16;;;;;;;18.92;16.82;;;;;;;10.66;74.07;99928.13;3438554;79;21019;-85
2022/09/25 21:07:07;;;;;;;20.08;17.98;;;;;;;10.55;74.16;99929.83;3481087;77;20933;-85
2022/09/25 21:11:58;;;;;;;21.05;18.80;;;;;;;10.46;74.24;99925.86;3449547;79;20975;-85
2022/09/25 21:16:50;;;;;;;19.77;16.85;;;;;;;10.37;74.48;99927.98;3515427;79;20947;-85
2022/09/25 21:21:41;;;;;;;23.62;18.90;;;;;;;10.32;74.58;99931.42;3464311;79;21037;-85
2022/09/25 21:26:33;;;;;;;21.40;17.90;;;;;;;10.21;74.43;99927.02;3491292;77;20950;-85
2022/09/25 21:31:30;;;;;;;21.97;19.27;;;;;;;10.16;74.71;99923.94;3530110;77;20944;-85
2022/09/25 21:36:23;;;;;;;23.65;19.37;;;;;;;10.10;74.67;99926.96;3546433;77;21463;-85
2022/09/25 21:41:17;;;;;;;23.30;19.40;;;;;;;10.06;74.91;99925.62;3566314;77;20974;-85
2022/09/25 21:46:13;;;;;;;25.95;21.50;;;;;;;9.99;74.96;99925.14;3519822;77;21942;-85
2022/09/25 21:51:07;;;;;;;22.02;19.17;;;;;;;9.91;75.18;99915.57;3578960;77;20935;-85
2022/09/25 21:56:09;;;;;;;24.82;19.70;;;;;;;9.83;74.96;99911.18;3507626;78;20971;-85
2022/09/25 22:01:10;;;;;;;27.45;21.97;;;;;;;9.72;75.00;99904.61;3551568;78;21392;-86
2022/09/25 22:06:05;;;;;;;25.77;22.32;;;;;;;9.67;75.35;99899.81;3553300;78;20994;-85
2022/09/25 22:11:01;;;;;;;25.00;19.95;;;;;;;9.56;75.21;99888.48;3444908;80;21023;-85
2022/09/25 22:16:27;;;;;;;27.32;20.55;;;;;;;9.50;75.06;99884.98;3476963;79;21472;-86
2022/09/25 22:21:23;;;;;;;23.15;19.77;;;;;;;9.43;75.16;99890.12;3526906;79;20907;-85
2022/09/25 22:26:16;;;;;;;23.62;19.98;;;;;;;9.34;75.10;99885.72;3521441;79;20903;-85
2022/09/25 22:31:12;;;;;;;27.67;19.82;;;;;;;9.27;75.20;99877.00;3444659;80;20974;-85
2022/09/25 22:36:06;;;;;;;25.92;21.45;;;;;;;9.20;75.12;99884.73;3472284;80;21208;-86
2022/09/25 22:41:05;;;;;;;25.62;20.95;;;;;;;9.10;75.13;99880.75;3450171;80;20963;-85
2022/09/25 22:45:57;;;;;;;21.68;19.27;;;;;;;9.07;75.46;99875.97;3511864;79;20993;-86
2022/09/25 22:51:02;;;;;;;25.75;20.30;;;;;;;9.01;75.30;99871.56;3450017;80;21101;-85
2022/09/25 22:55:53;;;;;;;27.25;21.52;;;;;;;8.93;75.17;99863.72;3491289;79;20981;-86
2022/09/25 23:00:49;;;;;;;22.52;19.90;;;;;;;8.85;75.57;99851.53;3496062;80;21030;-85
2022/09/25 23:05:40;;;;;;;23.35;19.90;;;;;;;8.86;75.41;99859.77;3478868;80;20979;-85
2022/09/25 23:10:34;;;;;;;26.02;21.05;;;;;;;8.77;74.98;99861.83;3513941;79;20940;-85
2022/09/25 23:15:25;;;;;;;24.55;20.68;;;;;;;8.72;75.57;99853.12;3553458;79;20892;-86
2022/09/25 23:20:17;;;;;;;25.32;21.00;;;;;;;8.68;75.53;99847.05;3508242;77;20959;-86